Muldrow, Mississippi
Current Conditions -  °F | °C
As of 4:55 AM on Friday 19 Dec 2014 (Local Time) from KSTF Reporting Station
Overcast Overcast  
Wind Chill:   Ceiling: 3100
Heat Index:   Visibility: 10mi
Dew Point:   Wind: 3mph
Humidity: 76%   Direction: 60°ENE
Pressure: 30.17"   Gusts: NA
Location:  33.4256°N, 88.8438°W
Report Text: KSTF 191055Z AUTO 06003KT 10SM OVC031 07/03 A3017 RMK AO2
Loading
Personal Weather Stations






























Interactive Weather Map New forecast layout! Learn more

10-Day Weather Forecast

Advertisements
Track Severe Weather on mobile